Time;durP1;ratioP1;P1;durP2;ratioP2;P2;SDS_P1;SDS_P2;PMS_P1;PMS_P2;Temp;Humidity;BMP_temperature;BMP_pressure;BME280_temperature;BME280_humidity;BME280_pressure;Samples;Min_cycle;Max_cycle;Signal;HPM_P1;HPM_P2
2021/09/27 00:01:09;;;;;;;12.37;4.97;;;;;;;5.83;100.00;100009.49;1720665;83;20982;-76
2021/09/27 00:03:46;;;;;;;14.50;5.50;;;;;;;5.79;99.95;100010.31;1691811;83;22299;-76
2021/09/27 00:06:17;;;;;;;11.67;5.40;;;;;;;5.73;99.70;100010.88;1725261;82;20947;-76
2021/09/27 00:08:48;;;;;;;14.35;6.50;;;;;;;5.68;99.56;100014.97;1726369;82;21406;-74
2021/09/27 00:11:20;;;;;;;15.43;6.37;;;;;;;5.64;99.48;100017.42;1712702;82;22141;-75
2021/09/27 00:13:51;;;;;;;17.77;6.80;;;;;;;5.60;99.47;100016.33;1721890;82;25166;-75
2021/09/27 00:16:21;;;;;;;14.55;5.95;;;;;;;5.57;99.33;100016.05;1722676;82;20985;-76
2021/09/27 00:18:48;;;;;;;16.23;6.55;;;;;;;5.49;99.11;100014.68;1715196;81;21022;-76
2021/09/27 00:21:23;;;;;;;12.85;5.85;;;;;;;5.42;99.09;100014.13;1661564;84;21066;-76
2021/09/27 00:24:01;;;;;;;13.45;5.53;;;;;;;5.37;99.14;100016.02;1725851;81;21141;-75
2021/09/27 00:26:31;;;;;;;14.10;5.47;;;;;;;5.29;99.07;100017.37;1670950;85;20985;-79
2021/09/27 00:29:01;;;;;;;14.45;5.92;;;;;;;5.23;99.02;100018.45;1687159;82;21133;-77
2021/09/27 00:31:28;;;;;;;11.75;6.17;;;;;;;5.18;99.08;100020.64;1692661;83;21000;-76
2021/09/27 00:33:59;;;;;;;15.45;6.53;;;;;;;5.12;98.85;100016.81;1678018;83;20938;-76
2021/09/27 00:36:26;;;;;;;24.90;7.80;;;;;;;5.04;98.89;100019.52;1694098;83;22221;-77
2021/09/27 00:39:00;;;;;;;20.50;7.35;;;;;;;4.99;99.13;100019.50;1695879;83;21063;-76
2021/09/27 00:41:30;;;;;;;16.90;8.50;;;;;;;4.94;99.41;100020.84;1703690;83;21397;-77
2021/09/27 00:44:02;;;;;;;38.13;16.55;;;;;;;4.95;99.80;100023.83;1686955;83;21058;-78
2021/09/27 00:46:32;;;;;;;32.38;13.58;;;;;;;4.95;100.00;100017.85;1701988;82;20962;-75
2021/09/27 00:49:01;;;;;;;37.80;15.88;;;;;;;4.98;100.00;100021.40;1713065;82;21145;-74
2021/09/27 00:51:37;;;;;;;34.85;15.10;;;;;;;5.01;100.00;100022.77;1706561;82;20935;-74
2021/09/27 00:54:11;;;;;;;30.43;13.43;;;;;;;5.02;100.00;100021.68;1723361;81;21538;-75
2021/09/27 00:56:55;;;;;;;26.25;13.08;;;;;;;5.02;100.00;100018.14;1721026;81;20927;-75
2021/09/27 00:59:24;;;;;;;25.85;12.40;;;;;;;5.07;100.00;100029.05;1743895;81;20942;-75
2021/09/27 01:01:53;;;;;;;26.70;12.07;;;;;;;5.07;100.00;100033.95;1707501;81;21113;-75
2021/09/27 01:04:22;;;;;;;21.12;9.88;;;;;;;5.05;100.00;100035.30;1734009;81;21006;-75
2021/09/27 01:06:58;;;;;;;23.60;9.78;;;;;;;5.05;100.00;100035.30;1730025;81;21387;-75
2021/09/27 01:10:05;;;;;;;17.62;7.35;;;;;;;4.98;100.00;100031.47;1726357;81;20888;-75
2021/09/27 01:12:46;;;;;;;15.70;7.47;;;;;;;4.96;100.00;100034.45;1583244;88;21615;-76
2021/09/27 01:15:48;;;;;;;22.67;6.83;;;;;;;4.91;100.00;100040.41;1581641;89;22225;-76
2021/09/27 01:18:53;;;;;;;16.45;7.00;;;;;;;4.86;100.00;100039.03;1572114;89;21608;-76
2021/09/27 01:21:54;;;;;;;;;;;;;;;4.78;100.00;100042.27;1668654;82;21026;-76
2021/09/27 01:25:07;;;;;;;11.90;5.45;;;;;;;4.74;100.00;100039.80;1668089;84;20126;-75
2021/09/27 01:28:21;;;;;;;13.38;5.42;;;;;;;4.74;100.00;100039.80;1665387;84;20881;-75
2021/09/27 01:31:01;;;;;;;11.95;6.00;;;;;;;4.72;100.00;100040.06;1725070;82;21136;-76
2021/09/27 01:33:58;;;;;;;11.40;4.37;;;;;;;4.68;100.00;100041.67;1727758;83;20959;-76
2021/09/27 01:36:53;;;;;;;17.30;6.08;;;;;;;4.69;100.00;100047.93;1719474;83;20899;-75
2021/09/27 01:39:47;;;;;;;13.53;4.87;;;;;;;4.65;100.00;100053.90;1720792;83;20974;-75
2021/09/27 01:42:37;;;;;;;6.67;3.58;;;;;;;4.61;100.00;100056.08;1709122;82;20903;-75
2021/09/27 01:45:08;;;;;;;17.55;4.12;;;;;;;4.56;100.00;100060.13;1717134;82;21623;-77
2021/09/27 01:47:47;;;;;;;8.58;3.90;;;;;;;4.50;100.00;100056.56;1696415;82;20947;-79
2021/09/27 01:50:22;;;;;;;16.50;4.45;;;;;;;4.47;100.00;100054.37;1719250;83;20977;-76
2021/09/27 01:52:57;;;;;;;11.30;4.35;;;;;;;4.43;100.00;100054.62;1692026;83;21070;-79
2021/09/27 01:55:47;;;;;;;10.25;4.45;;;;;;;4.40;100.00;100048.89;1719602;82;21002;-81
2021/09/27 01:58:35;;;;;;;9.43;3.77;;;;;;;4.37;100.00;100057.03;1720913;82;21786;-75
2021/09/27 02:01:06;;;;;;;8.65;3.95;;;;;;;4.33;100.00;100057.27;1712871;83;21075;-77
2021/09/27 02:03:42;;;;;;;10.20;4.00;;;;;;;4.30;100.00;100057.80;1689504;83;21506;-77
2021/09/27 02:06:29;;;;;;;10.32;4.50;;;;;;;4.28;100.00;100058.06;1718870;83;20962;-79
2021/09/27 02:09:18;;;;;;;10.18;4.58;;;;;;;4.26;100.00;100053.42;1722114;83;21028;-78
2021/09/27 02:11:49;;;;;;;11.70;4.05;;;;;;;4.26;100.00;100059.39;1686034;82;21159;-79
2021/09/27 02:14:40;;;;;;;12.68;4.70;;;;;;;4.24;100.00;100062.91;1720765;83;20896;-81
2021/09/27 02:17:21;;;;;;;7.83;4.67;;;;;;;4.20;100.00;100059.91;1714904;82;21464;-82
2021/09/27 02:20:14;;;;;;;11.18;4.47;;;;;;;4.18;100.00;100062.60;1721843;82;20934;-79
2021/09/27 02:22:52;;;;;;;11.60;3.87;;;;;;;4.16;100.00;100069.66;1726368;82;20974;-77
2021/09/27 02:25:23;;;;;;;11.35;4.60;;;;;;;4.13;100.00;100071.53;1716908;82;20978;-76
2021/09/27 02:27:51;;;;;;;10.13;4.62;;;;;;;4.10;100.00;100069.88;1719070;82;21028;-77
2021/09/27 02:30:21;;;;;;;10.00;4.45;;;;;;;4.06;100.00;100066.04;1701412;82;21489;-75
2021/09/27 02:32:57;;;;;;;9.55;4.25;;;;;;;4.03;100.00;100066.59;1713295;82;21497;-77
2021/09/27 02:35:47;;;;;;;9.70;4.45;;;;;;;3.98;100.00;100072.80;1727020;82;20990;-80
2021/09/27 02:38:42;;;;;;;14.43;5.12;;;;;;;3.93;100.00;100068.69;1718200;82;21554;-76
2021/09/27 02:41:34;;;;;;;13.08;5.40;;;;;;;3.88;100.00;100071.36;1716170;83;20902;-78
2021/09/27 02:44:01;;;;;;;11.95;5.03;;;;;;;3.86;100.00;100072.97;1725965;83;21477;-78
2021/09/27 02:46:29;;;;;;;12.53;5.00;;;;;;;3.88;100.00;100069.46;1726405;82;20994;-77
2021/09/27 02:49:09;;;;;;;12.18;4.85;;;;;;;3.88;100.00;100064.57;1733716;82;20953;-78
2021/09/27 02:51:26;;;;;;;10.05;4.37;;;;;;;3.87;100.00;100069.18;1725495;82;21541;-76
2021/09/27 02:53:53;;;;;;;9.90;4.47;;;;;;;3.85;100.00;100068.63;1721641;82;21021;-77
2021/09/27 02:56:43;;;;;;;9.78;4.55;;;;;;;3.84;100.00;100068.88;1727352;82;20986;-79
2021/09/27 02:59:38;;;;;;;7.40;4.10;;;;;;;3.87;100.00;100071.90;1697821;82;21881;-79
2021/09/27 03:02:19;;;;;;;9.78;4.30;;;;;;;3.91;100.00;100073.02;1723947;82;21081;-77
2021/09/27 03:04:54;;;;;;;8.18;3.72;;;;;;;3.93;100.00;100070.86;1712705;82;21555;-76
2021/09/27 03:07:58;;;;;;;8.73;3.77;;;;;;;3.97;100.00;100077.42;1727272;82;20937;-76
2021/09/27 03:10:59;;;;;;;8.98;3.72;;;;;;;4.00;100.00;100076.08;1708008;82;21073;-77
2021/09/27 03:13:49;;;;;;;8.90;3.67;;;;;;;3.98;100.00;100074.98;1722590;82;20994;-76
2021/09/27 03:16:27;;;;;;;8.90;3.60;;;;;;;4.03;100.00;100081.53;1687641;82;20918;-76
2021/09/27 03:19:40;;;;;;;7.85;3.80;;;;;;;4.07;100.00;100083.44;1722163;82;21488;-76
2021/09/27 03:22:29;;;;;;;8.85;3.60;;;;;;;4.07;100.00;100084.80;1721787;82;20895;-77
2021/09/27 03:25:43;;;;;;;8.68;3.55;;;;;;;4.15;100.00;100086.22;1718502;82;21596;-75
2021/09/27 03:28:15;;;;;;;6.45;3.12;;;;;;;4.19;100.00;100087.34;1722035;82;20996;-76
2021/09/27 03:31:23;;;;;;;11.28;3.17;;;;;;;4.19;100.00;100092.23;1720397;82;21089;-76
2021/09/27 03:34:38;;;;;;;7.87;3.62;;;;;;;4.20;100.00;100093.88;1722245;82;21542;-76
2021/09/27 03:37:34;;;;;;;8.15;3.65;;;;;;;4.24;100.00;100090.09;1725420;82;21529;-76
2021/09/27 03:40:15;;;;;;;8.65;3.72;;;;;;;4.24;100.00;100090.09;1726704;82;21619;-75
2021/09/27 03:43:04;;;;;;;4.95;3.35;;;;;;;4.28;100.00;100091.21;1693789;82;21050;-77
2021/09/27 03:46:05;;;;;;;6.20;2.98;;;;;;;4.29;100.00;100088.77;1732654;82;20980;-77
2021/09/27 03:49:02;;;;;;;13.43;3.05;;;;;;;4.28;100.00;100087.13;1722243;82;21671;-75
2021/09/27 03:51:36;;;;;;;8.90;3.42;;;;;;;4.27;100.00;100093.65;1719297;82;20934;-75
2021/09/27 03:54:17;;;;;;;5.17;3.40;;;;;;;4.27;100.00;100103.16;1709976;82;21093;-76
2021/09/27 03:56:48;;;;;;;7.50;3.40;;;;;;;4.25;100.00;100106.14;1715876;82;20985;-76
2021/09/27 03:59:35;;;;;;;7.42;3.10;;;;;;;4.28;100.00;100102.08;1714488;82;20954;-75
2021/09/27 04:02:16;;;;;;;5.10;3.37;;;;;;;4.32;100.00;100104.56;1723441;82;22233;-76
2021/09/27 04:05:07;;;;;;;6.85;3.50;;;;;;;4.44;100.00;100097.03;1717247;82;21049;-76
2021/09/27 04:08:10;;;;;;;8.80;3.45;;;;;;;4.44;100.00;100097.03;1730214;82;20950;-76
2021/09/27 04:11:02;;;;;;;5.17;2.83;;;;;;;4.53;100.00;100094.11;1717960;82;20963;-77
2021/09/27 04:13:43;;;;;;;8.35;3.70;;;;;;;4.63;100.00;100100.11;1698333;82;21611;-77
2021/09/27 04:16:24;;;;;;;7.12;3.20;;;;;;;4.65;100.00;100098.77;1702429;82;21507;-77
2021/09/27 04:19:25;;;;;;;14.95;3.37;;;;;;;4.68;100.00;100103.41;1683544;83;21022;-77
2021/09/27 04:22:15;;;;;;;6.92;2.77;;;;;;;4.70;100.00;100101.24;1667928;84;21055;-77
2021/09/27 04:25:07;;;;;;;6.40;2.67;;;;;;;4.74;100.00;100102.35;1721285;82;21081;-80
2021/09/27 04:28:20;;;;;;;5.60;2.80;;;;;;;4.81;100.00;100104.30;1721688;82;21029;-80
2021/09/27 04:31:14;;;;;;;9.25;3.20;;;;;;;4.86;100.00;100101.06;1720499;82;21152;-78
2021/09/27 04:34:01;;;;;;;5.67;3.37;;;;;;;4.94;100.00;100106.00;1732169;82;21061;-78
2021/09/27 04:36:37;;;;;;;5.72;3.15;;;;;;;5.00;100.00;100100.04;1719954;82;21024;-78
2021/09/27 04:39:14;;;;;;;7.42;3.58;;;;;;;5.08;100.00;100102.80;1725167;82;21409;-78
2021/09/27 04:42:20;;;;;;;7.35;3.47;;;;;;;5.14;100.00;100104.45;1724897;82;22376;-78
2021/09/27 04:45:10;;;;;;;6.72;3.30;;;;;;;5.22;100.00;100095.75;1728338;82;21587;-77
2021/09/27 04:47:59;;;;;;;5.87;3.35;;;;;;;5.36;100.00;100096.88;1723638;82;20903;-77
2021/09/27 04:50:40;;;;;;;6.92;2.95;;;;;;;5.45;100.00;100093.91;1724606;82;21917;-76
2021/09/27 04:53:24;;;;;;;9.70;3.47;;;;;;;5.52;100.00;100095.84;1729758;82;20973;-77
2021/09/27 04:56:32;;;;;;;6.90;3.10;;;;;;;5.61;100.00;100097.48;1724265;82;21524;-77
2021/09/27 04:59:18;;;;;;;7.70;3.37;;;;;;;5.68;100.00;100102.14;1731302;82;21560;-76
2021/09/27 05:02:14;;;;;;;5.45;2.70;;;;;;;5.76;100.00;100102.97;1730106;82;20938;-76
2021/09/27 05:04:51;;;;;;;7.70;3.47;;;;;;;5.83;100.00;100106.22;1715454;82;21066;-74
2021/09/27 05:07:47;;;;;;;8.15;3.33;;;;;;;5.91;100.00;100102.98;1721541;82;21087;-77
2021/09/27 05:10:28;;;;;;;6.65;2.98;;;;;;;6.04;100.00;100107.09;1693127;83;21172;-77
2021/09/27 05:13:19;;;;;;;9.63;3.37;;;;;;;6.12;100.00;100109.81;1710802;82;21086;-77
2021/09/27 05:16:06;;;;;;;7.83;3.20;;;;;;;6.20;100.00;100113.36;1719019;82;21426;-77
2021/09/27 05:19:05;;;;;;;5.58;3.10;;;;;;;6.28;100.00;100108.72;1718141;82;20971;-75
2021/09/27 05:22:09;;;;;;;7.40;3.10;;;;;;;6.38;100.00;100107.87;1675635;84;20964;-79
2021/09/27 05:25:11;;;;;;;9.60;3.30;;;;;;;6.47;100.00;100111.67;1683290;84;20870;-76
2021/09/27 05:27:48;;;;;;;4.45;2.85;;;;;;;6.55;100.00;100114.67;1669989;83;21144;-77
2021/09/27 05:30:35;;;;;;;6.95;3.42;;;;;;;6.69;100.00;100125.02;1717667;82;21002;-73
2021/09/27 05:33:20;;;;;;;5.53;3.00;;;;;;;6.76;100.00;100125.55;1723799;82;21036;-78
2021/09/27 05:36:13;;;;;;;9.98;3.02;;;;;;;6.87;100.00;100127.16;1704802;82;21005;-73
2021/09/27 05:39:14;;;;;;;8.03;2.98;;;;;;;7.03;100.00;100125.98;1717243;82;21073;-74
2021/09/27 05:41:49;;;;;;;5.25;3.08;;;;;;;7.15;100.00;100119.67;1717850;82;21715;-75
2021/09/27 05:44:47;;;;;;;5.83;2.60;;;;;;;7.29;100.00;100121.25;1727330;82;20891;-77
2021/09/27 05:47:32;;;;;;;5.72;2.42;;;;;;;7.37;100.00;100129.41;1723026;81;20940;-77
2021/09/27 05:50:35;;;;;;;4.78;2.25;;;;;;;7.42;100.00;100128.84;1720616;81;21047;-77
2021/09/27 05:53:30;;;;;;;7.05;2.98;;;;;;;7.50;100.00;100134.27;1669592;85;21144;-77
2021/09/27 05:56:14;;;;;;;4.70;2.75;;;;;;;7.58;100.00;100133.65;1723251;81;21143;-78
2021/09/27 05:59:08;;;;;;;6.87;2.42;;;;;;;7.68;100.00;100134.96;1705893;83;21046;-78
2021/09/27 06:02:00;;;;;;;3.45;2.70;;;;;;;7.79;100.00;100134.35;1714749;81;20935;-77
2021/09/27 06:04:48;;;;;;;6.08;2.47;;;;;;;7.89;100.00;100132.92;1680203;84;20948;-77
2021/09/27 06:07:33;;;;;;;8.18;2.37;;;;;;;8.00;100.00;100137.22;1678016;84;20924;-77
2021/09/27 06:10:17;;;;;;;4.28;2.25;;;;;;;8.10;100.00;100131.65;1663551;84;21135;-76
2021/09/27 06:13:01;;;;;;;4.67;2.33;;;;;;;8.23;100.00;100121.98;1667544;84;21529;-76
2021/09/27 06:15:45;;;;;;;4.33;2.20;;;;;;;8.36;100.00;100130.94;1672822;84;20983;-76
2021/09/27 06:18:39;;;;;;;5.33;2.33;;;;;;;8.43;100.00;100132.78;1667584;84;21018;-77
2021/09/27 06:21:30;;;;;;;5.55;2.40;;;;;;;8.50;100.00;100135.19;1669883;84;20948;-77
2021/09/27 06:24:26;;;;;;;4.00;2.60;;;;;;;8.57;100.00;100128.28;1667468;84;21212;-80
2021/09/27 06:26:58;;;;;;;3.00;1.98;;;;;;;8.67;100.00;100122.41;1692087;84;21015;-74
2021/09/27 06:29:54;;;;;;;3.62;2.08;;;;;;;8.79;100.00;100121.47;1671799;84;20951;-82
2021/09/27 06:33:06;;;;;;;6.53;2.33;;;;;;;8.94;100.00;100124.05;1669933;84;20947;-81
2021/09/27 06:35:36;;;;;;;7.58;2.60;;;;;;;9.06;100.00;100125.02;1673509;84;21565;-73
2021/09/27 06:38:05;;;;;;;8.08;2.40;;;;;;;9.19;100.00;100120.20;1673674;84;21261;-85
2021/09/27 06:40:32;;;;;;;6.40;2.70;;;;;;;9.28;98.98;100117.86;1666141;84;20947;-76
2021/09/27 06:42:59;;;;;;;3.60;2.10;;;;;;;9.36;98.65;100119.69;1676277;84;20917;-75
2021/09/27 06:45:25;;;;;;;6.90;2.40;;;;;;;9.44;97.72;100117.12;1671602;84;20919;-74
2021/09/27 06:47:51;;;;;;;5.95;2.12;;;;;;;9.53;97.86;100117.28;1667722;84;21445;-77
2021/09/27 06:50:18;;;;;;;10.32;2.27;;;;;;;9.65;97.36;100118.21;1676324;84;21116;-75
2021/09/27 06:52:44;;;;;;;9.53;3.20;;;;;;;9.71;95.76;100118.41;1674249;84;20947;-76
2021/09/27 06:55:11;;;;;;;9.60;2.95;;;;;;;9.78;95.93;100119.66;1671319;84;21046;-80
2021/09/27 06:57:38;;;;;;;5.60;2.30;;;;;;;9.90;95.73;100115.89;1661148;85;20907;-78
2021/09/27 07:00:08;;;;;;;3.50;2.45;;;;;;;10.23;96.55;100114.59;1675936;84;20979;-74
2021/09/27 07:02:35;;;;;;;5.03;2.40;;;;;;;10.78;93.82;100117.45;1689773;84;21142;-77
2021/09/27 07:05:02;;;;;;;5.55;2.37;;;;;;;11.43;92.29;100119.42;1668453;84;20911;-78
2021/09/27 07:07:28;;;;;;;6.30;2.58;;;;;;;12.01;88.68;100127.50;1664808;85;20912;-78
2021/09/27 07:09:55;;;;;;;4.50;2.40;;;;;;;12.58;86.23;100124.42;1661304;85;21835;-76
2021/09/27 07:12:21;;;;;;;7.00;2.17;;;;;;;13.10;82.74;100118.58;1667085;84;21014;-76
2021/09/27 07:14:48;;;;;;;3.12;1.70;;;;;;;13.48;78.96;100118.87;1661293;85;21195;-76
2021/09/27 07:17:14;;;;;;;2.80;1.72;;;;;;;13.71;76.38;100117.37;1661374;85;20919;-78
2021/09/27 07:19:41;;;;;;;3.12;1.52;;;;;;;13.94;75.79;100116.63;1661435;85;21018;-74
2021/09/27 07:22:08;;;;;;;6.25;1.50;;;;;;;14.18;72.95;100115.02;1715274;82;21010;-78
2021/09/27 07:24:35;;;;;;;2.58;1.55;;;;;;;14.37;72.04;100109.72;1712961;82;21008;-72
2021/09/27 07:27:03;;;;;;;3.27;1.52;;;;;;;14.60;71.40;100111.70;1712754;83;22735;-83
2021/09/27 07:29:30;;;;;;;2.25;1.55;;;;;;;14.92;70.16;100110.31;1708391;83;21148;-79
2021/09/27 07:31:56;;;;;;;3.22;1.52;;;;;;;15.32;67.32;100108.81;1724710;83;20899;-74
2021/09/27 07:34:23;;;;;;;4.28;1.60;;;;;;;15.63;65.02;100109.04;1726099;83;21591;-74
2021/09/27 07:36:49;;;;;;;3.30;1.57;;;;;;;15.72;63.90;100112.56;1724428;82;20919;-74
2021/09/27 07:39:18;;;;;;;6.30;1.47;;;;;;;15.89;63.28;100113.02;1726748;82;22581;-73
2021/09/27 07:41:46;;;;;;;2.50;1.27;;;;;;;16.10;62.80;100106.33;1722623;82;20894;-73
2021/09/27 07:44:13;;;;;;;4.35;1.12;;;;;;;16.42;60.63;100113.59;1716567;82;20934;-73
2021/09/27 07:46:39;;;;;;;3.02;1.40;;;;;;;16.63;57.80;100108.00;1727124;82;21052;-75
2021/09/27 07:49:06;;;;;;;12.53;1.50;;;;;;;16.71;57.00;100114.06;1727770;82;20879;-73
2021/09/27 07:51:32;;;;;;;4.30;1.10;;;;;;;16.68;57.01;100114.17;1725083;82;22114;-81
2021/09/27 07:53:59;;;;;;;2.35;1.20;;;;;;;16.73;57.01;100110.38;1722325;82;21046;-82
2021/09/27 07:56:26;;;;;;;2.02;1.10;;;;;;;16.83;55.00;100114.06;1713130;83;20990;-80
2021/09/27 07:58:53;;;;;;;2.72;1.32;;;;;;;16.88;54.49;100120.77;1717340;82;21502;-79
2021/09/27 08:01:19;;;;;;;4.80;2.47;;;;;;;16.82;54.75;100112.44;1731562;82;21499;-80
2021/09/27 08:03:46;;;;;;;4.75;1.70;;;;;;;16.84;54.77;100118.45;1731713;82;21533;-71
2021/09/27 08:06:13;;;;;;;4.25;1.17;;;;;;;17.08;55.06;100116.30;1719515;83;20970;-77
2021/09/27 08:08:41;;;;;;;1.37;0.90;;;;;;;16.84;53.38;100124.00;1717406;82;21466;-81
2021/09/27 08:11:07;;;;;;;2.40;1.50;;;;;;;16.38;53.84;100126.50;1728872;82;21579;-77
2021/09/27 08:13:36;;;;;;;3.77;1.52;;;;;;;15.84;54.49;100136.17;1722902;82;20927;-72
2021/09/27 08:16:03;;;;;;;1.65;1.10;;;;;;;15.61;56.65;100130.12;1718174;82;21506;-75
2021/09/27 08:18:29;;;;;;;2.55;1.22;;;;;;;15.68;56.57;100137.33;1709564;82;21444;-75
2021/09/27 08:21:01;;;;;;;2.30;1.10;;;;;;;15.72;56.48;100138.86;1713583;82;20982;-80
2021/09/27 08:23:27;;;;;;;2.65;1.25;;;;;;;15.56;55.92;100132.28;1721978;82;21751;-79
2021/09/27 08:25:54;;;;;;;1.95;1.10;;;;;;;15.26;57.19;100132.84;1726342;82;21029;-80
2021/09/27 08:28:23;;;;;;;2.40;1.22;;;;;;;15.15;57.41;100127.68;1732884;82;21510;-80
2021/09/27 08:30:53;;;;;;;2.60;1.50;;;;;;;15.24;58.29;100136.52;1718849;81;20977;-80
2021/09/27 08:33:21;;;;;;;3.00;1.10;;;;;;;15.40;58.25;100135.62;1714844;82;20870;-85
2021/09/27 08:35:52;;;;;;;1.42;0.88;;;;;;;15.46;57.22;100134.86;1727805;81;21038;-80
2021/09/27 08:38:19;;;;;;;1.27;1.10;;;;;;;15.59;56.36;100137.98;1721603;83;20894;-81
2021/09/27 08:40:53;;;;;;;2.62;1.07;;;;;;;15.87;56.64;100129.96;1710667;82;21160;-79
2021/09/27 08:43:51;;;;;;;2.08;0.90;;;;;;;16.28;55.52;100134.66;1722480;82;20951;-75
2021/09/27 08:46:42;;;;;;;1.77;1.10;;;;;;;16.34;53.00;100136.07;1682602;82;22279;-77
2021/09/27 08:49:48;;;;;;;2.33;1.30;;;;;;;15.81;52.50;100129.35;1711334;83;20981;-84
2021/09/27 08:52:18;;;;;;;4.05;1.00;;;;;;;15.16;54.40;100137.59;1714415;83;21081;-83
2021/09/27 08:54:47;;;;;;;6.33;1.00;;;;;;;14.63;56.04;100131.20;1720312;82;21986;-87
2021/09/27 08:57:36;;;;;;;4.42;1.27;;;;;;;14.33;57.02;100133.60;1723633;82;21619;-82
2021/09/27 09:00:15;;;;;;;2.27;0.90;;;;;;;14.07;57.90;100138.56;1726745;81;21563;-83
2021/09/27 09:03:08;;;;;;;2.45;1.07;;;;;;;13.92;59.51;100134.08;1718221;82;21039;-80
2021/09/27 09:05:48;;;;;;;5.37;1.02;;;;;;;14.36;60.00;100135.71;1718019;83;20915;-83
2021/09/27 09:08:46;;;;;;;3.50;1.37;;;;;;;15.32;57.55;100117.68;1717453;81;21521;-84
2021/09/27 09:11:55;;;;;;;6.28;1.77;;;;;;;16.04;55.87;100117.95;1711573;82;21129;-82
2021/09/27 09:14:53;;;;;;;19.45;1.85;;;;;;;16.17;53.93;100123.78;1715962;82;21029;-80
2021/09/27 09:17:43;;;;;;;1.62;1.00;;;;;;;15.65;54.11;100135.23;1722250;82;20942;-79
2021/09/27 09:20:16;;;;;;;1.10;0.75;;;;;;;15.04;54.39;100134.72;1717902;82;20966;-85
2021/09/27 09:22:44;;;;;;;3.03;0.70;;;;;;;14.65;55.59;100135.02;1708102;82;21751;-83
2021/09/27 09:25:17;;;;;;;4.37;0.98;;;;;;;14.34;56.54;100133.84;1731115;82;21620;-80
2021/09/27 09:27:46;;;;;;;1.47;0.90;;;;;;;14.13;57.37;100137.27;1715298;81;21029;-83
2021/09/27 09:30:13;;;;;;;1.82;0.98;;;;;;;13.96;58.41;100137.25;1728636;82;21107;-83
2021/09/27 09:32:40;;;;;;;1.55;0.80;;;;;;;13.75;59.36;100134.91;1715672;81;20998;-83
2021/09/27 09:35:28;;;;;;;0.70;0.70;;;;;;;13.55;60.07;100135.76;1697156;82;21437;-85
2021/09/27 09:38:11;;;;;;;2.17;1.00;;;;;;;13.47;60.34;100129.65;1719911;82;20895;-84
2021/09/27 09:40:52;;;;;;;6.67;1.20;;;;;;;13.39;61.02;100132.38;1713884;81;21129;-81
2021/09/27 09:43:29;;;;;;;3.25;1.00;;;;;;;13.27;61.99;100135.78;1743824;81;21097;-82
2021/09/27 09:46:13;;;;;;;7.35;1.02;;;;;;;13.26;61.60;100137.48;1720317;81;20968;-77
2021/09/27 09:49:10;;;;;;;2.87;1.07;;;;;;;13.24;62.87;100135.04;1712196;81;21434;-85
2021/09/27 09:51:46;;;;;;;7.35;1.30;;;;;;;13.25;62.40;100146.88;1698155;84;21009;-82
2021/09/27 09:54:23;;;;;;;3.80;0.88;;;;;;;13.25;62.01;100137.23;1690712;83;21145;-82
2021/09/27 09:57:17;;;;;;;2.30;1.22;;;;;;;13.30;61.60;100145.33;1695412;83;21572;-81
2021/09/27 10:00:13;;;;;;;1.52;0.78;;;;;;;13.29;61.77;100142.33;1702650;83;20930;-82
2021/09/27 10:02:43;;;;;;;3.80;0.82;;;;;;;13.26;60.41;100135.53;1689294;83;21627;-81
2021/09/27 10:05:23;;;;;;;0.80;0.70;;;;;;;13.17;61.53;100141.02;1687001;83;20946;-83
2021/09/27 10:07:55;;;;;;;1.82;0.95;;;;;;;13.20;61.85;100136.25;1698734;83;20954;-84
2021/09/27 10:10:39;;;;;;;1.82;0.90;;;;;;;13.23;62.58;100137.55;1690852;83;20998;-83
2021/09/27 10:13:25;;;;;;;2.27;0.82;;;;;;;13.26;61.69;100140.23;1695724;83;21028;-82
2021/09/27 10:15:53;;;;;;;2.00;0.80;;;;;;;13.27;62.37;100134.41;1694902;83;21148;-81
2021/09/27 10:18:30;;;;;;;3.72;0.70;;;;;;;13.19;62.59;100139.31;1690597;82;21001;-84
2021/09/27 10:21:24;;;;;;;0.80;0.80;;;;;;;13.13;63.03;100134.48;1699344;82;20942;-83
2021/09/27 10:24:18;;;;;;;3.85;0.70;;;;;;;13.09;62.70;100127.98;1699423;83;20982;-84
2021/09/27 10:26:52;;;;;;;4.72;1.00;;;;;;;13.01;62.05;100130.70;1703606;84;21135;-82
2021/09/27 10:29:24;;;;;;;2.08;1.15;;;;;;;12.94;62.60;100124.27;1687088;83;21193;-82
2021/09/27 10:32:16;;;;;;;2.08;1.00;;;;;;;12.89;63.16;100136.80;1690614;83;21128;-83
2021/09/27 10:34:43;;;;;;;4.60;0.82;;;;;;;12.82;63.55;100133.12;1683333;83;21924;-83
2021/09/27 10:37:15;;;;;;;7.12;1.10;;;;;;;12.74;63.87;100132.50;1675713;84;21022;-82
2021/09/27 10:39:45;;;;;;;3.37;0.85;;;;;;;12.66;64.57;100137.43;1691145;84;21006;-83
2021/09/27 10:42:14;;;;;;;2.02;0.93;;;;;;;12.61;64.35;100130.67;1678168;84;21142;-82
2021/09/27 10:44:54;;;;;;;1.60;0.73;;;;;;;12.55;63.92;100129.18;1656099;83;21006;-82
2021/09/27 10:47:26;;;;;;;0.95;0.70;;;;;;;12.50;64.26;100131.50;1678677;84;21533;-82
2021/09/27 10:50:13;;;;;;;5.15;1.07;;;;;;;12.49;64.99;100125.73;1713100;81;21054;-85
2021/09/27 10:52:55;;;;;;;3.15;0.90;;;;;;;12.54;65.43;100131.69;1727190;81;21088;-84
2021/09/27 10:55:38;;;;;;;2.50;0.70;;;;;;;12.66;65.76;100132.48;1703360;82;21042;-85
2021/09/27 10:58:09;;;;;;;7.72;0.95;;;;;;;12.82;63.08;100123.47;1700334;83;21013;-83
2021/09/27 11:00:51;;;;;;;1.42;0.80;;;;;;;13.04;63.70;100122.61;1689294;84;20938;-82
2021/09/27 11:03:40;;;;;;;1.10;0.65;;;;;;;13.37;62.28;100124.43;1691373;83;21034;-80
2021/09/27 11:06:43;;;;;;;1.87;0.72;;;;;;;13.65;60.77;100124.17;1697208;82;21115;-82
2021/09/27 11:09:31;;;;;;;2.70;0.70;;;;;;;13.87;59.61;100122.06;1713271;82;21021;-83
2021/09/27 11:12:36;;;;;;;4.55;0.70;;;;;;;13.99;58.26;100122.80;1710703;82;21129;-81
2021/09/27 11:15:08;;;;;;;1.12;0.60;;;;;;;14.10;58.08;100120.53;1674845;82;21089;-82
2021/09/27 11:17:42;;;;;;;1.10;0.62;;;;;;;14.20;58.20;100114.69;1713749;82;20946;-82
2021/09/27 11:20:38;;;;;;;1.30;0.78;;;;;;;14.25;57.48;100115.90;1713933;82;21198;-82
2021/09/27 11:23:29;;;;;;;1.20;0.88;;;;;;;14.21;57.50;100115.73;1710378;82;21218;-81
2021/09/27 11:26:17;;;;;;;1.75;0.90;;;;;;;14.13;57.55;100119.88;1707471;82;21040;-81
2021/09/27 11:28:51;;;;;;;1.15;0.80;;;;;;;13.97;58.26;100120.94;1708241;82;21656;-82
2021/09/27 11:31:34;;;;;;;1.65;1.00;;;;;;;13.80;58.60;100120.39;1713424;82;20965;-82
2021/09/27 11:34:34;;;;;;;2.58;1.27;;;;;;;13.67;58.46;100124.66;1712105;82;21158;-82
2021/09/27 11:37:44;;;;;;;6.20;0.95;;;;;;;13.52;59.10;100126.74;1704950;82;21170;-81
2021/09/27 11:40:32;;;;;;;2.67;1.45;;;;;;;13.46;59.36;100123.89;1686119;83;20989;-83
2021/09/27 11:43:26;;;;;;;1.32;1.12;;;;;;;13.46;60.22;100116.18;1694691;83;21001;-81
2021/09/27 11:46:18;;;;;;;3.22;1.30;;;;;;;13.44;60.48;100115.69;1711708;82;21089;-83
2021/09/27 11:49:00;;;;;;;1.30;1.00;;;;;;;13.43;60.20;100120.95;1691415;82;21196;-82
2021/09/27 11:51:32;;;;;;;1.62;1.02;;;;;;;13.40;60.68;100116.08;1700230;82;21220;-83
2021/09/27 11:54:22;;;;;;;9.40;1.80;;;;;;;13.39;60.98;100114.45;1691382;83;20998;-81
2021/09/27 11:57:08;;;;;;;4.63;1.43;;;;;;;13.40;61.47;100118.27;1686669;83;21124;-83
2021/09/27 11:59:56;;;;;;;2.15;0.95;;;;;;;13.43;60.46;100120.95;1691007;82;20897;-83
2021/09/27 12:02:36;;;;;;;2.92;1.37;;;;;;;13.39;60.86;100119.41;1652338;82;21076;-83
2021/09/27 12:05:36;;;;;;;1.80;1.20;;;;;;;13.35;60.79;100121.18;1699894;82;39231;-82
2021/09/27 12:08:25;;;;;;;1.22;0.90;;;;;;;13.34;60.78;100123.69;1703321;83;20978;-81
2021/09/27 12:11:05;;;;;;;1.55;1.00;;;;;;;13.33;60.87;100126.77;1667526;82;20906;-81
2021/09/27 12:13:40;;;;;;;2.30;1.22;;;;;;;13.37;60.61;100119.48;1700367;82;20986;-82
2021/09/27 12:16:24;;;;;;;1.70;1.07;;;;;;;13.41;60.95;100116.33;1691416;82;21049;-82
2021/09/27 12:18:55;;;;;;;2.05;0.90;;;;;;;13.43;60.66;100110.73;1698535;83;21140;-82
2021/09/27 12:21:33;;;;;;;3.45;0.95;;;;;;;13.45;60.78;100118.69;1702002;82;21057;-84
2021/09/27 12:24:29;;;;;;;3.45;0.90;;;;;;;13.42;60.36;100117.39;1688610;83;20999;-84
2021/09/27 12:27:18;;;;;;;1.90;1.40;;;;;;;13.41;60.57;100117.70;1701468;82;21045;-86
2021/09/27 12:29:54;;;;;;;2.67;1.30;;;;;;;13.38;58.81;100121.11;1714134;82;21490;-88